sensor_id;sensor_type;location;lat;lon;timestamp;temperature;humidity
22706;DHT22;11520;51.198;4.468;2023-04-26T00:01:13;6.40;99.90
22706;DHT22;11520;51.198;4.468;2023-04-26T00:03:39;6.40;99.90
22706;DHT22;11520;51.198;4.468;2023-04-26T00:06:05;6.40;99.90
22706;DHT22;11520;51.198;4.468;2023-04-26T00:08:37;6.30;99.90
22706;DHT22;11520;51.198;4.468;2023-04-26T00:11:03;6.30;99.90
22706;DHT22;11520;51.198;4.468;2023-04-26T00:13:29;6.20;99.90
22706;DHT22;11520;51.198;4.468;2023-04-26T00:15:54;6.30;99.90
22706;DHT22;11520;51.198;4.468;2023-04-26T00:18:20;6.30;99.90
22706;DHT22;11520;51.198;4.468;2023-04-26T00:20:46;6.20;99.90
22706;DHT22;11520;51.198;4.468;2023-04-26T00:23:12;6.20;99.90
22706;DHT22;11520;51.198;4.468;2023-04-26T00:25:37;6.20;99.90
22706;DHT22;11520;51.198;4.468;2023-04-26T00:28:03;6.10;99.90
22706;DHT22;11520;51.198;4.468;2023-04-26T00:30:29;6.10;99.90
22706;DHT22;11520;51.198;4.468;2023-04-26T00:32:55;6.20;99.90
22706;DHT22;11520;51.198;4.468;2023-04-26T00:35:21;6.10;99.90
22706;DHT22;11520;51.198;4.468;2023-04-26T00:37:46;6.10;99.90
22706;DHT22;11520;51.198;4.468;2023-04-26T00:40:13;6.00;99.90
22706;DHT22;11520;51.198;4.468;2023-04-26T00:42:40;5.90;99.90
22706;DHT22;11520;51.198;4.468;2023-04-26T00:45:06;5.90;99.90
22706;DHT22;11520;51.198;4.468;2023-04-26T00:47:32;5.80;99.90
22706;DHT22;11520;51.198;4.468;2023-04-26T00:50:00;5.90;99.90
22706;DHT22;11520;51.198;4.468;2023-04-26T00:52:26;5.90;99.90
22706;DHT22;11520;51.198;4.468;2023-04-26T00:54:53;5.90;99.90
22706;DHT22;11520;51.198;4.468;2023-04-26T00:57:22;5.90;99.90
22706;DHT22;11520;51.198;4.468;2023-04-26T00:59:48;5.80;99.90
22706;DHT22;11520;51.198;4.468;2023-04-26T01:02:14;5.80;99.90
22706;DHT22;11520;51.198;4.468;2023-04-26T01:04:43;5.70;99.90
22706;DHT22;11520;51.198;4.468;2023-04-26T01:07:10;5.70;99.90
22706;DHT22;11520;51.198;4.468;2023-04-26T01:09:36;5.90;99.90
22706;DHT22;11520;51.198;4.468;2023-04-26T01:12:02;5.70;99.90
22706;DHT22;11520;51.198;4.468;2023-04-26T01:14:28;5.70;99.90
22706;DHT22;11520;51.198;4.468;2023-04-26T01:16:55;5.70;99.90
22706;DHT22;11520;51.198;4.468;2023-04-26T01:19:21;5.60;99.90
22706;DHT22;11520;51.198;4.468;2023-04-26T01:21:47;5.50;99.90
22706;DHT22;11520;51.198;4.468;2023-04-26T01:24:13;5.50;99.90
22706;DHT22;11520;51.198;4.468;2023-04-26T01:26:39;5.50;99.90
22706;DHT22;11520;51.198;4.468;2023-04-26T01:29:17;5.40;99.90
22706;DHT22;11520;51.198;4.468;2023-04-26T01:31:44;5.40;99.90
22706;DHT22;11520;51.198;4.468;2023-04-26T01:34:10;5.40;99.90
22706;DHT22;11520;51.198;4.468;2023-04-26T01:36:36;5.40;99.90
22706;DHT22;11520;51.198;4.468;2023-04-26T01:39:02;5.30;99.90
22706;DHT22;11520;51.198;4.468;2023-04-26T01:41:29;5.30;99.90
22706;DHT22;11520;51.198;4.468;2023-04-26T01:43:55;5.30;99.90
22706;DHT22;11520;51.198;4.468;2023-04-26T01:46:21;5.20;99.90
22706;DHT22;11520;51.198;4.468;2023-04-26T01:48:47;5.20;99.90
22706;DHT22;11520;51.198;4.468;2023-04-26T01:51:15;5.20;99.90
22706;DHT22;11520;51.198;4.468;2023-04-26T01:53:42;5.20;99.90
22706;DHT22;11520;51.198;4.468;2023-04-26T01:56:07;5.10;99.90
22706;DHT22;11520;51.198;4.468;2023-04-26T01:58:35;5.10;99.90
22706;DHT22;11520;51.198;4.468;2023-04-26T02:01:06;5.10;99.90
22706;DHT22;11520;51.198;4.468;2023-04-26T02:03:32;5.10;99.90
22706;DHT22;11520;51.198;4.468;2023-04-26T02:05:58;5.10;99.90
22706;DHT22;11520;51.198;4.468;2023-04-26T02:08:24;5.10;99.90
22706;DHT22;11520;51.198;4.468;2023-04-26T02:10:51;5.00;99.90
22706;DHT22;11520;51.198;4.468;2023-04-26T02:13:17;5.00;99.90
22706;DHT22;11520;51.198;4.468;2023-04-26T02:15:47;5.00;99.90
22706;DHT22;11520;51.198;4.468;2023-04-26T02:18:14;4.90;99.90
22706;DHT22;11520;51.198;4.468;2023-04-26T02:20:40;5.00;99.90
22706;DHT22;11520;51.198;4.468;2023-04-26T02:23:11;4.90;99.90
22706;DHT22;11520;51.198;4.468;2023-04-26T02:25:40;4.90;99.90
22706;DHT22;11520;51.198;4.468;2023-04-26T02:28:06;4.90;99.90
22706;DHT22;11520;51.198;4.468;2023-04-26T02:30:32;4.90;99.90
22706;DHT22;11520;51.198;4.468;2023-04-26T02:32:58;4.90;99.90
22706;DHT22;11520;51.198;4.468;2023-04-26T02:35:24;4.80;99.90
22706;DHT22;11520;51.198;4.468;2023-04-26T02:37:51;4.80;99.90
22706;DHT22;11520;51.198;4.468;2023-04-26T02:40:20;4.90;99.90
22706;DHT22;11520;51.198;4.468;2023-04-26T02:42:47;4.80;99.90
22706;DHT22;11520;51.198;4.468;2023-04-26T02:45:13;4.70;99.90
22706;DHT22;11520;51.198;4.468;2023-04-26T02:47:39;4.70;99.90
22706;DHT22;11520;51.198;4.468;2023-04-26T02:50:06;4.60;99.90
22706;DHT22;11520;51.198;4.468;2023-04-26T02:52:33;4.80;99.90
22706;DHT22;11520;51.198;4.468;2023-04-26T02:54:59;4.70;99.90
22706;DHT22;11520;51.198;4.468;2023-04-26T02:57:25;4.70;99.90
22706;DHT22;11520;51.198;4.468;2023-04-26T02:59:51;4.70;99.90
22706;DHT22;11520;51.198;4.468;2023-04-26T03:02:18;4.70;99.90
22706;DHT22;11520;51.198;4.468;2023-04-26T03:04:44;4.70;99.90
22706;DHT22;11520;51.198;4.468;2023-04-26T03:07:12;4.70;99.90
22706;DHT22;11520;51.198;4.468;2023-04-26T03:09:37;4.70;99.90
22706;DHT22;11520;51.198;4.468;2023-04-26T03:12:05;4.70;99.90
22706;DHT22;11520;51.198;4.468;2023-04-26T03:14:31;4.70;99.90
22706;DHT22;11520;51.198;4.468;2023-04-26T03:16:58;4.80;99.90
22706;DHT22;11520;51.198;4.468;2023-04-26T03:19:23;4.80;99.90
22706;DHT22;11520;51.198;4.468;2023-04-26T03:21:50;4.70;99.90
22706;DHT22;11520;51.198;4.468;2023-04-26T03:24:16;4.70;99.90
22706;DHT22;11520;51.198;4.468;2023-04-26T03:26:42;4.70;99.90
22706;DHT22;11520;51.198;4.468;2023-04-26T03:29:07;4.70;99.90
22706;DHT22;11520;51.198;4.468;2023-04-26T03:31:33;4.70;99.90
22706;DHT22;11520;51.198;4.468;2023-04-26T03:33:59;4.70;99.90
22706;DHT22;11520;51.198;4.468;2023-04-26T03:36:24;4.70;99.90
22706;DHT22;11520;51.198;4.468;2023-04-26T03:38:53;4.80;99.90
22706;DHT22;11520;51.198;4.468;2023-04-26T03:41:19;4.80;99.90
22706;DHT22;11520;51.198;4.468;2023-04-26T03:43:44;4.80;99.90
22706;DHT22;11520;51.198;4.468;2023-04-26T03:46:10;4.90;99.90
22706;DHT22;11520;51.198;4.468;2023-04-26T03:48:35;4.90;99.90
22706;DHT22;11520;51.198;4.468;2023-04-26T03:51:01;4.90;99.90
22706;DHT22;11520;51.198;4.468;2023-04-26T03:53:28;4.90;99.90
22706;DHT22;11520;51.198;4.468;2023-04-26T03:55:53;5.00;99.90
22706;DHT22;11520;51.198;4.468;2023-04-26T03:58:19;5.00;99.90
22706;DHT22;11520;51.198;4.468;2023-04-26T04:00:44;4.90;99.90
22706;DHT22;11520;51.198;4.468;2023-04-26T04:03:10;5.00;99.90
22706;DHT22;11520;51.198;4.468;2023-04-26T04:05:36;4.90;99.90
22706;DHT22;11520;51.198;4.468;2023-04-26T04:08:02;4.90;99.90
22706;DHT22;11520;51.198;4.468;2023-04-26T04:10:28;4.90;99.90
22706;DHT22;11520;51.198;4.468;2023-04-26T04:12:54;4.80;99.90
22706;DHT22;11520;51.198;4.468;2023-04-26T04:15:20;4.80;99.90
22706;DHT22;11520;51.198;4.468;2023-04-26T04:17:46;4.80;99.90
22706;DHT22;11520;51.198;4.468;2023-04-26T04:20:12;4.80;99.90
22706;DHT22;11520;51.198;4.468;2023-04-26T04:22:38;4.80;99.90
22706;DHT22;11520;51.198;4.468;2023-04-26T04:25:07;4.70;99.90
22706;DHT22;11520;51.198;4.468;2023-04-26T04:27:35;4.70;99.90
22706;DHT22;11520;51.198;4.468;2023-04-26T04:30:04;4.70;99.90
22706;DHT22;11520;51.198;4.468;2023-04-26T04:32:32;4.70;99.90
22706;DHT22;11520;51.198;4.468;2023-04-26T04:34:58;4.70;99.90
22706;DHT22;11520;51.198;4.468;2023-04-26T04:37:24;4.80;99.90
22706;DHT22;11520;51.198;4.468;2023-04-26T04:39:53;4.90;99.90
22706;DHT22;11520;51.198;4.468;2023-04-26T04:42:19;4.90;99.90
22706;DHT22;11520;51.198;4.468;2023-04-26T04:44:45;5.00;99.90
22706;DHT22;11520;51.198;4.468;2023-04-26T04:47:12;5.10;99.90
22706;DHT22;11520;51.198;4.468;2023-04-26T04:49:38;5.20;99.90
22706;DHT22;11520;51.198;4.468;2023-04-26T04:52:04;5.40;99.90
22706;DHT22;11520;51.198;4.468;2023-04-26T04:54:34;5.50;99.90
22706;DHT22;11520;51.198;4.468;2023-04-26T04:57:00;5.50;99.90
22706;DHT22;11520;51.198;4.468;2023-04-26T04:59:26;5.60;99.90
22706;DHT22;11520;51.198;4.468;2023-04-26T05:01:51;5.70;99.90
22706;DHT22;11520;51.198;4.468;2023-04-26T05:04:17;5.70;99.90
22706;DHT22;11520;51.198;4.468;2023-04-26T05:06:42;5.80;99.90
22706;DHT22;11520;51.198;4.468;2023-04-26T05:09:08;6.00;99.90
22706;DHT22;11520;51.198;4.468;2023-04-26T05:11:34;6.10;99.90
22706;DHT22;11520;51.198;4.468;2023-04-26T05:14:00;6.20;99.90
22706;DHT22;11520;51.198;4.468;2023-04-26T05:16:26;6.30;99.90
22706;DHT22;11520;51.198;4.468;2023-04-26T05:18:52;6.40;99.90
22706;DHT22;11520;51.198;4.468;2023-04-26T05:21:18;6.60;99.90
22706;DHT22;11520;51.198;4.468;2023-04-26T05:23:44;6.70;99.90
22706;DHT22;11520;51.198;4.468;2023-04-26T05:26:16;6.70;99.90
22706;DHT22;11520;51.198;4.468;2023-04-26T05:28:42;6.60;99.90
22706;DHT22;11520;51.198;4.468;2023-04-26T05:31:08;6.60;99.90
22706;DHT22;11520;51.198;4.468;2023-04-26T05:33:34;6.60;99.90
22706;DHT22;11520;51.198;4.468;2023-04-26T05:36:00;6.80;99.90
22706;DHT22;11520;51.198;4.468;2023-04-26T05:38:26;6.70;99.90
22706;DHT22;11520;51.198;4.468;2023-04-26T05:40:51;6.80;99.90
22706;DHT22;11520;51.198;4.468;2023-04-26T05:43:17;6.90;99.90
22706;DHT22;11520;51.198;4.468;2023-04-26T05:45:53;6.90;99.90
22706;DHT22;11520;51.198;4.468;2023-04-26T05:48:20;7.10;99.90
22706;DHT22;11520;51.198;4.468;2023-04-26T05:50:47;7.30;99.90
22706;DHT22;11520;51.198;4.468;2023-04-26T05:53:13;7.40;99.90
22706;DHT22;11520;51.198;4.468;2023-04-26T05:55:42;7.60;99.90
22706;DHT22;11520;51.198;4.468;2023-04-26T05:58:08;7.80;99.90
22706;DHT22;11520;51.198;4.468;2023-04-26T06:00:35;8.10;99.90
22706;DHT22;11520;51.198;4.468;2023-04-26T06:03:01;8.40;99.90
22706;DHT22;11520;51.198;4.468;2023-04-26T06:05:27;8.70;99.90
22706;DHT22;11520;51.198;4.468;2023-04-26T06:07:53;9.80;99.90
22706;DHT22;11520;51.198;4.468;2023-04-26T06:10:19;10.90;99.90
22706;DHT22;11520;51.198;4.468;2023-04-26T06:12:46;11.40;99.90
22706;DHT22;11520;51.198;4.468;2023-04-26T06:15:11;12.00;99.90
22706;DHT22;11520;51.198;4.468;2023-04-26T06:17:37;12.30;99.90
22706;DHT22;11520;51.198;4.468;2023-04-26T06:20:03;12.50;99.90
22706;DHT22;11520;51.198;4.468;2023-04-26T06:22:32;12.80;99.90
22706;DHT22;11520;51.198;4.468;2023-04-26T06:24:57;12.80;99.90
22706;DHT22;11520;51.198;4.468;2023-04-26T06:27:23;12.50;99.90
22706;DHT22;11520;51.198;4.468;2023-04-26T06:29:49;12.30;99.90
22706;DHT22;11520;51.198;4.468;2023-04-26T06:32:14;12.30;99.90
22706;DHT22;11520;51.198;4.468;2023-04-26T06:34:40;12.30;99.90
22706;DHT22;11520;51.198;4.468;2023-04-26T06:37:08;12.30;99.90
22706;DHT22;11520;51.198;4.468;2023-04-26T06:39:33;12.50;99.90
22706;DHT22;11520;51.198;4.468;2023-04-26T06:42:00;12.40;99.90
22706;DHT22;11520;51.198;4.468;2023-04-26T06:44:25;12.40;99.90
22706;DHT22;11520;51.198;4.468;2023-04-26T06:46:53;12.30;99.90
22706;DHT22;11520;51.198;4.468;2023-04-26T06:49:19;12.20;99.90
22706;DHT22;11520;51.198;4.468;2023-04-26T06:51:45;12.00;99.90
22706;DHT22;11520;51.198;4.468;2023-04-26T06:54:11;12.10;99.90
22706;DHT22;11520;51.198;4.468;2023-04-26T06:56:37;12.10;99.90
22706;DHT22;11520;51.198;4.468;2023-04-26T06:59:04;12.10;99.90
22706;DHT22;11520;51.198;4.468;2023-04-26T07:01:32;12.10;99.90
22706;DHT22;11520;51.198;4.468;2023-04-26T07:04:04;12.10;99.90
22706;DHT22;11520;51.198;4.468;2023-04-26T07:06:32;11.70;99.90
22706;DHT22;11520;51.198;4.468;2023-04-26T07:08:59;11.90;99.90
22706;DHT22;11520;51.198;4.468;2023-04-26T07:11:25;11.80;99.90
22706;DHT22;11520;51.198;4.468;2023-04-26T07:13:51;11.80;99.90
22706;DHT22;11520;51.198;4.468;2023-04-26T07:16:17;12.00;99.90
22706;DHT22;11520;51.198;4.468;2023-04-26T07:18:42;12.20;99.90
22706;DHT22;11520;51.198;4.468;2023-04-26T07:21:08;12.60;99.90
22706;DHT22;11520;51.198;4.468;2023-04-26T07:23:34;13.30;99.90
22706;DHT22;11520;51.198;4.468;2023-04-26T07:26:01;13.80;99.90
22706;DHT22;11520;51.198;4.468;2023-04-26T07:28:29;14.70;99.90
22706;DHT22;11520;51.198;4.468;2023-04-26T07:30:54;15.40;99.90
22706;DHT22;11520;51.198;4.468;2023-04-26T07:33:20;15.90;99.90
22706;DHT22;11520;51.198;4.468;2023-04-26T07:35:56;16.30;99.90
22706;DHT22;11520;51.198;4.468;2023-04-26T07:38:22;16.20;99.90
22706;DHT22;11520;51.198;4.468;2023-04-26T07:40:49;16.00;99.90
22706;DHT22;11520;51.198;4.468;2023-04-26T07:43:16;15.70;99.90
22706;DHT22;11520;51.198;4.468;2023-04-26T07:45:42;15.50;99.90
22706;DHT22;11520;51.198;4.468;2023-04-26T07:48:07;15.50;99.90
22706;DHT22;11520;51.198;4.468;2023-04-26T07:50:33;14.90;99.90
22706;DHT22;11520;51.198;4.468;2023-04-26T07:52:59;14.80;99.90
22706;DHT22;11520;51.198;4.468;2023-04-26T07:55:24;15.10;99.90
22706;DHT22;11520;51.198;4.468;2023-04-26T07:57:50;15.10;99.90
22706;DHT22;11520;51.198;4.468;2023-04-26T08:00:17;15.30;99.90
22706;DHT22;11520;51.198;4.468;2023-04-26T08:02:43;15.60;99.90
22706;DHT22;11520;51.198;4.468;2023-04-26T08:05:11;15.60;99.90
22706;DHT22;11520;51.198;4.468;2023-04-26T08:07:37;14.90;99.90
22706;DHT22;11520;51.198;4.468;2023-04-26T08:10:03;14.90;99.90
22706;DHT22;11520;51.198;4.468;2023-04-26T08:12:29;15.20;99.90
22706;DHT22;11520;51.198;4.468;2023-04-26T08:14:55;15.00;99.90
22706;DHT22;11520;51.198;4.468;2023-04-26T08:17:20;14.10;99.90
22706;DHT22;11520;51.198;4.468;2023-04-26T08:19:46;13.90;99.90
22706;DHT22;11520;51.198;4.468;2023-04-26T08:22:12;13.50;99.90
22706;DHT22;11520;51.198;4.468;2023-04-26T08:24:37;13.60;99.90
22706;DHT22;11520;51.198;4.468;2023-04-26T08:27:03;13.60;99.90
22706;DHT22;11520;51.198;4.468;2023-04-26T08:29:30;14.00;99.90
22706;DHT22;11520;51.198;4.468;2023-04-26T08:31:55;13.90;99.90
22706;DHT22;11520;51.198;4.468;2023-04-26T08:34:21;14.20;99.90
22706;DHT22;11520;51.198;4.468;2023-04-26T08:36:47;15.10;99.90
22706;DHT22;11520;51.198;4.468;2023-04-26T08:39:12;14.90;99.90
22706;DHT22;11520;51.198;4.468;2023-04-26T08:41:49;15.30;99.90
22706;DHT22;11520;51.198;4.468;2023-04-26T08:44:20;17.30;99.90
22706;DHT22;11520;51.198;4.468;2023-04-26T08:47:13;19.10;98.70
22706;DHT22;11520;51.198;4.468;2023-04-26T08:49:45;19.30;93.00
22706;DHT22;11520;51.198;4.468;2023-04-26T08:52:13;17.80;92.70
22706;DHT22;11520;51.198;4.468;2023-04-26T08:54:40;17.70;93.70
22706;DHT22;11520;51.198;4.468;2023-04-26T08:57:09;17.50;90.10
22706;DHT22;11520;51.198;4.468;2023-04-26T08:59:38;17.10;90.60
22706;DHT22;11520;51.198;4.468;2023-04-26T09:02:06;17.80;89.50
22706;DHT22;11520;51.198;4.468;2023-04-26T09:04:32;17.90;87.00
22706;DHT22;11520;51.198;4.468;2023-04-26T09:06:59;18.80;86.90
22706;DHT22;11520;51.198;4.468;2023-04-26T09:09:27;19.20;83.40
22706;DHT22;11520;51.198;4.468;2023-04-26T09:11:54;19.50;79.10
22706;DHT22;11520;51.198;4.468;2023-04-26T09:14:20;19.60;79.40
22706;DHT22;11520;51.198;4.468;2023-04-26T09:16:46;19.60;75.90
22706;DHT22;11520;51.198;4.468;2023-04-26T09:19:12;19.80;76.20
22706;DHT22;11520;51.198;4.468;2023-04-26T09:21:45;20.10;72.10
22706;DHT22;11520;51.198;4.468;2023-04-26T09:24:12;20.20;71.10
22706;DHT22;11520;51.198;4.468;2023-04-26T09:26:38;20.10;71.10
22706;DHT22;11520;51.198;4.468;2023-04-26T09:29:14;19.50;69.40
22706;DHT22;11520;51.198;4.468;2023-04-26T09:31:43;18.30;73.20
22706;DHT22;11520;51.198;4.468;2023-04-26T09:34:10;17.60;75.10
22706;DHT22;11520;51.198;4.468;2023-04-26T09:36:53;17.20;75.30
22706;DHT22;11520;51.198;4.468;2023-04-26T09:39:35;17.20;77.70
22706;DHT22;11520;51.198;4.468;2023-04-26T09:42:03;17.30;76.70
22706;DHT22;11520;51.198;4.468;2023-04-26T09:44:29;15.50;80.10
22706;DHT22;11520;51.198;4.468;2023-04-26T09:47:03;14.30;84.40
22706;DHT22;11520;51.198;4.468;2023-04-26T09:49:47;14.30;88.50
22706;DHT22;11520;51.198;4.468;2023-04-26T09:52:14;14.90;87.40
22706;DHT22;11520;51.198;4.468;2023-04-26T09:57:10;17.00;79.60
22706;DHT22;11520;51.198;4.468;2023-04-26T09:59:40;17.40;77.10
22706;DHT22;11520;51.198;4.468;2023-04-26T10:02:13;17.50;78.70
22706;DHT22;11520;51.198;4.468;2023-04-26T10:04:42;18.10;76.00
22706;DHT22;11520;51.198;4.468;2023-04-26T10:07:08;18.60;75.40
22706;DHT22;11520;51.198;4.468;2023-04-26T10:09:34;18.90;74.00
22706;DHT22;11520;51.198;4.468;2023-04-26T10:12:00;19.30;74.00
22706;DHT22;11520;51.198;4.468;2023-04-26T10:14:27;19.10;71.50
22706;DHT22;11520;51.198;4.468;2023-04-26T10:16:53;19.00;69.50
22706;DHT22;11520;51.198;4.468;2023-04-26T10:19:20;19.50;68.90
22706;DHT22;11520;51.198;4.468;2023-04-26T10:21:47;19.70;68.20
22706;DHT22;11520;51.198;4.468;2023-04-26T10:24:13;19.90;66.80
22706;DHT22;11520;51.198;4.468;2023-04-26T10:26:52;19.30;65.70
22706;DHT22;11520;51.198;4.468;2023-04-26T10:32:23;15.80;75.00
22706;DHT22;11520;51.198;4.468;2023-04-26T10:35:08;14.90;78.90
22706;DHT22;11520;51.198;4.468;2023-04-26T10:37:35;13.70;81.50
22706;DHT22;11520;51.198;4.468;2023-04-26T10:40:23;13.80;83.90
22706;DHT22;11520;51.198;4.468;2023-04-26T10:42:49;14.20;82.60
22706;DHT22;11520;51.198;4.468;2023-04-26T10:45:28;14.40;81.90
22706;DHT22;11520;51.198;4.468;2023-04-26T10:58:49;21.60;63.20
22706;DHT22;11520;51.198;4.468;2023-04-26T11:01:31;22.00;62.20
22706;DHT22;11520;51.198;4.468;2023-04-26T11:06:25;21.00;61.20
22706;DHT22;11520;51.198;4.468;2023-04-26T11:08:52;22.10;59.60
22706;DHT22;11520;51.198;4.468;2023-04-26T11:11:18;22.40;55.60
22706;DHT22;11520;51.198;4.468;2023-04-26T11:13:46;22.40;55.40
22706;DHT22;11520;51.198;4.468;2023-04-26T11:16:16;22.70;54.60
22706;DHT22;11520;51.198;4.468;2023-04-26T11:18:44;22.80;53.90
22706;DHT22;11520;51.198;4.468;2023-04-26T11:21:10;22.40;52.80
22706;DHT22;11520;51.198;4.468;2023-04-26T11:23:37;22.10;54.00
22706;DHT22;11520;51.198;4.468;2023-04-26T11:26:05;21.90;54.50
22706;DHT22;11520;51.198;4.468;2023-04-26T11:28:34;22.10;53.60
22706;DHT22;11520;51.198;4.468;2023-04-26T11:31:00;21.70;53.20
22706;DHT22;11520;51.198;4.468;2023-04-26T11:33:26;20.60;55.60
22706;DHT22;11520;51.198;4.468;2023-04-26T11:35:53;20.00;55.10
22706;DHT22;11520;51.198;4.468;2023-04-26T11:38:27;19.90;56.30
22706;DHT22;11520;51.198;4.468;2023-04-26T11:41:02;20.20;56.70
22706;DHT22;11520;51.198;4.468;2023-04-26T11:46:00;18.60;59.10
22706;DHT22;11520;51.198;4.468;2023-04-26T11:48:27;18.30;59.70
22706;DHT22;11520;51.198;4.468;2023-04-26T11:50:57;18.30;60.20
22706;DHT22;11520;51.198;4.468;2023-04-26T11:53:24;18.10;60.60
22706;DHT22;11520;51.198;4.468;2023-04-26T11:55:50;16.90;62.40
22706;DHT22;11520;51.198;4.468;2023-04-26T11:58:16;17.50;63.40
22706;DHT22;11520;51.198;4.468;2023-04-26T12:00:59;17.60;62.00
22706;DHT22;11520;51.198;4.468;2023-04-26T12:03:33;18.20;61.50
22706;DHT22;11520;51.198;4.468;2023-04-26T12:06:03;18.40;59.60
22706;DHT22;11520;51.198;4.468;2023-04-26T12:08:31;18.10;59.80
22706;DHT22;11520;51.198;4.468;2023-04-26T12:11:01;17.70;60.30
22706;DHT22;11520;51.198;4.468;2023-04-26T12:13:30;17.60;60.80
22706;DHT22;11520;51.198;4.468;2023-04-26T12:15:57;18.10;60.10
22706;DHT22;11520;51.198;4.468;2023-04-26T12:18:29;18.80;59.50
22706;DHT22;11520;51.198;4.468;2023-04-26T12:20:58;19.50;58.10
22706;DHT22;11520;51.198;4.468;2023-04-26T12:23:24;20.30;58.10
22706;DHT22;11520;51.198;4.468;2023-04-26T12:28:18;19.00;57.60
22706;DHT22;11520;51.198;4.468;2023-04-26T12:30:43;19.30;57.40
22706;DHT22;11520;51.198;4.468;2023-04-26T12:33:09;18.70;59.10
22706;DHT22;11520;51.198;4.468;2023-04-26T12:35:35;19.40;58.80
22706;DHT22;11520;51.198;4.468;2023-04-26T12:38:01;19.80;57.60
22706;DHT22;11520;51.198;4.468;2023-04-26T12:40:27;19.60;57.30
22706;DHT22;11520;51.198;4.468;2023-04-26T12:42:53;19.40;57.70
22706;DHT22;11520;51.198;4.468;2023-04-26T12:45:23;19.70;58.70
22706;DHT22;11520;51.198;4.468;2023-04-26T12:47:50;19.90;57.80
22706;DHT22;11520;51.198;4.468;2023-04-26T12:50:16;19.90;57.10
22706;DHT22;11520;51.198;4.468;2023-04-26T12:52:43;19.90;56.80
22706;DHT22;11520;51.198;4.468;2023-04-26T12:55:14;18.30;58.90
22706;DHT22;11520;51.198;4.468;2023-04-26T12:57:41;18.30;59.30
22706;DHT22;11520;51.198;4.468;2023-04-26T13:00:10;18.60;59.10
22706;DHT22;11520;51.198;4.468;2023-04-26T13:02:37;18.90;58.50
22706;DHT22;11520;51.198;4.468;2023-04-26T13:05:04;18.80;57.80
22706;DHT22;11520;51.198;4.468;2023-04-26T13:07:35;17.80;61.90
22706;DHT22;11520;51.198;4.468;2023-04-26T13:10:02;16.80;66.40
22706;DHT22;11520;51.198;4.468;2023-04-26T13:12:28;15.90;68.60
22706;DHT22;11520;51.198;4.468;2023-04-26T13:14:54;16.00;69.20
22706;DHT22;11520;51.198;4.468;2023-04-26T13:17:23;16.00;69.80
22706;DHT22;11520;51.198;4.468;2023-04-26T13:19:50;16.40;69.50
22706;DHT22;11520;51.198;4.468;2023-04-26T13:22:18;16.00;70.00
22706;DHT22;11520;51.198;4.468;2023-04-26T13:24:44;16.30;69.80
22706;DHT22;11520;51.198;4.468;2023-04-26T13:27:11;16.70;68.80
22706;DHT22;11520;51.198;4.468;2023-04-26T13:29:37;17.20;67.10
22706;DHT22;11520;51.198;4.468;2023-04-26T13:32:03;16.90;66.00
22706;DHT22;11520;51.198;4.468;2023-04-26T13:34:29;16.80;67.40
22706;DHT22;11520;51.198;4.468;2023-04-26T13:36:55;16.20;66.80
22706;DHT22;11520;51.198;4.468;2023-04-26T13:39:23;16.60;67.50
22706;DHT22;11520;51.198;4.468;2023-04-26T13:41:50;16.70;67.10
22706;DHT22;11520;51.198;4.468;2023-04-26T13:44:16;16.80;66.30
22706;DHT22;11520;51.198;4.468;2023-04-26T13:46:44;16.10;66.30
22706;DHT22;11520;51.198;4.468;2023-04-26T13:49:11;16.20;67.50
22706;DHT22;11520;51.198;4.468;2023-04-26T13:51:37;16.60;67.40
22706;DHT22;11520;51.198;4.468;2023-04-26T13:54:03;16.80;67.40
22706;DHT22;11520;51.198;4.468;2023-04-26T13:56:30;17.10;67.10
22706;DHT22;11520;51.198;4.468;2023-04-26T13:58:59;17.00;66.60
22706;DHT22;11520;51.198;4.468;2023-04-26T14:01:30;17.30;65.70
22706;DHT22;11520;51.198;4.468;2023-04-26T14:03:55;17.40;65.70
22706;DHT22;11520;51.198;4.468;2023-04-26T14:06:21;17.40;63.60
22706;DHT22;11520;51.198;4.468;2023-04-26T14:08:47;16.50;64.90
22706;DHT22;11520;51.198;4.468;2023-04-26T14:11:12;15.90;67.80
22706;DHT22;11520;51.198;4.468;2023-04-26T14:13:40;15.80;68.20
22706;DHT22;11520;51.198;4.468;2023-04-26T14:16:05;15.90;68.90
22706;DHT22;11520;51.198;4.468;2023-04-26T14:18:31;15.90;68.50
22706;DHT22;11520;51.198;4.468;2023-04-26T14:20:57;15.80;69.80
22706;DHT22;11520;51.198;4.468;2023-04-26T14:23:23;14.80;70.20
22706;DHT22;11520;51.198;4.468;2023-04-26T14:25:52;13.90;72.80
22706;DHT22;11520;51.198;4.468;2023-04-26T14:28:18;14.30;74.50
22706;DHT22;11520;51.198;4.468;2023-04-26T14:30:44;14.80;73.70
22706;DHT22;11520;51.198;4.468;2023-04-26T14:33:10;15.10;72.20
22706;DHT22;11520;51.198;4.468;2023-04-26T14:35:36;15.10;70.60
22706;DHT22;11520;51.198;4.468;2023-04-26T14:38:02;15.10;71.90
22706;DHT22;11520;51.198;4.468;2023-04-26T14:40:28;15.20;72.50
22706;DHT22;11520;51.198;4.468;2023-04-26T14:42:54;15.40;71.90
22706;DHT22;11520;51.198;4.468;2023-04-26T14:45:20;15.60;71.90
22706;DHT22;11520;51.198;4.468;2023-04-26T14:47:46;15.80;72.00
22706;DHT22;11520;51.198;4.468;2023-04-26T14:50:11;15.20;72.00
22706;DHT22;11520;51.198;4.468;2023-04-26T14:52:38;14.90;73.00
22706;DHT22;11520;51.198;4.468;2023-04-26T14:55:05;15.00;72.50
22706;DHT22;11520;51.198;4.468;2023-04-26T14:57:30;15.20;72.00
22706;DHT22;11520;51.198;4.468;2023-04-26T14:59:57;14.90;73.50
22706;DHT22;11520;51.198;4.468;2023-04-26T15:02:30;14.40;73.10
22706;DHT22;11520;51.198;4.468;2023-04-26T15:04:56;14.40;73.90
22706;DHT22;11520;51.198;4.468;2023-04-26T15:07:22;14.60;73.80
22706;DHT22;11520;51.198;4.468;2023-04-26T15:09:47;14.80;72.50
22706;DHT22;11520;51.198;4.468;2023-04-26T15:12:13;14.80;71.90
22706;DHT22;11520;51.198;4.468;2023-04-26T15:14:39;14.70;73.30
22706;DHT22;11520;51.198;4.468;2023-04-26T15:17:04;14.70;71.50
22706;DHT22;11520;51.198;4.468;2023-04-26T15:19:30;14.30;71.90
22706;DHT22;11520;51.198;4.468;2023-04-26T15:21:56;14.40;73.50
22706;DHT22;11520;51.198;4.468;2023-04-26T15:24:22;14.30;73.50
22706;DHT22;11520;51.198;4.468;2023-04-26T15:26:49;14.60;71.10
22706;DHT22;11520;51.198;4.468;2023-04-26T15:29:15;14.80;71.20
22706;DHT22;11520;51.198;4.468;2023-04-26T15:31:41;14.60;72.10
22706;DHT22;11520;51.198;4.468;2023-04-26T15:34:07;15.00;71.90
22706;DHT22;11520;51.198;4.468;2023-04-26T15:36:33;14.70;73.10
22706;DHT22;11520;51.198;4.468;2023-04-26T15:38:58;14.70;74.10
22706;DHT22;11520;51.198;4.468;2023-04-26T15:41:24;14.50;73.10
22706;DHT22;11520;51.198;4.468;2023-04-26T15:43:53;14.20;74.60
22706;DHT22;11520;51.198;4.468;2023-04-26T15:46:21;14.30;74.90
22706;DHT22;11520;51.198;4.468;2023-04-26T15:48:47;14.10;74.40
22706;DHT22;11520;51.198;4.468;2023-04-26T15:51:13;14.30;74.70
22706;DHT22;11520;51.198;4.468;2023-04-26T15:53:38;13.70;76.80
22706;DHT22;11520;51.198;4.468;2023-04-26T15:56:14;13.80;78.40
22706;DHT22;11520;51.198;4.468;2023-04-26T15:58:42;13.90;78.60
22706;DHT22;11520;51.198;4.468;2023-04-26T16:01:08;13.70;80.30